Airfield :
LOGIN :

Register | Disclaimer

   EN    FR    IT 

 










Legend :    VFR   Marginal VFR   IFR   Intensive IFR   Very Intensive IFR
Visi :
Ceiling :
>= 8 km
>= 3000ft
5 to 8 km
1000 to 3000 ft
1500m to 5 km
500 to 1000 ft
800 to 1500m
200 to 500 ft
< 800m
< 200 ft
Symbols :   Thunderstorms  Fog  Heavy snow  Heavy precipitations  Wind > 20 kt
SIGMETs :     Misc.  Thunderstorms  Icing  Turbulence  Mountain Waves  Volcanic Ashes







- Airport Elevation : 1260 ft
- IATA code : LDE
- Download approach charts


LFBT - Tarbes / Ossun

CURRENT METAR :
  • 170200Z AUTO 22007KT 190V250 9999 -RA BKN030/// BKN039/// BKN047/// ///TCU 06/04 Q1025 TEMPO 25020G30KT 4000 SHRA BKN008 SCT015TCU FEW025CB

EXPIRED METARs :
  • 170130Z AUTO 19010KT 9999 BKN028/// BKN036/// OVC044/// ///TCU 06/04 Q1025 TEMPO 25020G30KT 4000 SHRA BKN008 SCT015TCU FEW025CB
  • 170100Z AUTO 24012KT 200V260 9999 -RA FEW027/// SCT035/// BKN041/// ///TCU 06/05 Q1025 TEMPO 25020G30KT 4000 SHRA BKN008 SCT015TCU FEW025CB
  • 170030Z AUTO 24011KT 9999 FEW009/// BKN034/// BKN046/// ///CB 06/04 Q1025 TEMPO 25020G30KT 4000 SHRA BKN008 SCT015TCU FEW025CB
  • 170000Z AUTO 29011G25KT 260V330 6000 RA FEW015/// BKN028/// OVC033/// ///CB 07/05 Q1024 TEMPO 4000 SHRA BKN008 SCT015TCU FEW025CB
  • 162330Z AUTO 24009KT 9999 -RA BKN033/// OVC039/// ///CB 07/05 Q1024 TEMPO 25020G30KT 4000 SHRA BKN008 SCT015TCU FEW025CB

TAF AMD TAF LFBT
Valid from the 17 at 01:00 until the 18 at 00:00 UTC


170147Z 1701/1724 24015KT 9999 BKN025
TEMPO 1701/1708 4000 SHRA BKN008 SCT015TCU FEW025CB
PROB40
TEMPO 1701/1704 24020G30KT
BECMG 1708/1710 VRB03KT
No reported NOTAMs for that airfield.
1 SIGMET reported for the Bordeaux FIR (LFBB) :
 
Severe turbulence
LFBB SIGMET 3 VALID 170000/170400 LFPW
LFBB BORDEAUX FIR/UIR SEV TURB FCST SE OF LINE N4330 E00245 - N4230 E00115 SFC/FL060 STNR NC=



MET'MAP, your aeronautical weather chart ! - Copyright ORBIFLY December 2007 - Disclaimer

ORBIFLY MET'MAP TEAM :

Programming & Development : Alexandra Zaïnal
Concept & Development : Baudouin d'Aumeries
Co-Development & Prog : Marc-Olivier Méhu
Technical & hardware support : Manuel Goepfert

Contact : metmap@orbifly.com




SOURCES & CREDITS :

   NOAA